sensor_id;sensor_type;location;lat;lon;timestamp;temperature;humidity
23301;DHT22;11819;51.394;12.340;2022-12-05T00:01:55;4.70;94.40
23301;DHT22;11819;51.394;12.340;2022-12-05T00:04:21;4.70;94.40
23301;DHT22;11819;51.394;12.340;2022-12-05T00:06:47;4.70;94.30
23301;DHT22;11819;51.394;12.340;2022-12-05T00:09:13;4.70;94.30
23301;DHT22;11819;51.394;12.340;2022-12-05T00:11:40;4.70;94.40
23301;DHT22;11819;51.394;12.340;2022-12-05T00:14:07;4.70;94.40
23301;DHT22;11819;51.394;12.340;2022-12-05T00:16:36;4.70;94.40
23301;DHT22;11819;51.394;12.340;2022-12-05T00:19:04;4.80;94.50
23301;DHT22;11819;51.394;12.340;2022-12-05T00:21:32;4.80;94.40
23301;DHT22;11819;51.394;12.340;2022-12-05T00:23:59;4.80;94.40
23301;DHT22;11819;51.394;12.340;2022-12-05T00:26:25;4.80;94.40
23301;DHT22;11819;51.394;12.340;2022-12-05T00:28:52;4.80;94.50
23301;DHT22;11819;51.394;12.340;2022-12-05T00:31:22;4.80;94.50
23301;DHT22;11819;51.394;12.340;2022-12-05T00:33:49;4.80;94.50
23301;DHT22;11819;51.394;12.340;2022-12-05T00:36:20;4.80;94.40
23301;DHT22;11819;51.394;12.340;2022-12-05T00:38:47;4.80;94.50
23301;DHT22;11819;51.394;12.340;2022-12-05T00:41:18;4.80;94.50
23301;DHT22;11819;51.394;12.340;2022-12-05T00:43:44;4.80;94.50
23301;DHT22;11819;51.394;12.340;2022-12-05T00:46:16;4.80;94.50
23301;DHT22;11819;51.394;12.340;2022-12-05T00:48:43;4.80;94.50
23301;DHT22;11819;51.394;12.340;2022-12-05T00:51:20;4.80;94.50
23301;DHT22;11819;51.394;12.340;2022-12-05T00:53:48;4.80;94.50
23301;DHT22;11819;51.394;12.340;2022-12-05T00:56:16;4.80;94.90
23301;DHT22;11819;51.394;12.340;2022-12-05T00:58:42;4.80;94.50
23301;DHT22;11819;51.394;12.340;2022-12-05T01:01:26;4.90;94.50
23301;DHT22;11819;51.394;12.340;2022-12-05T01:03:55;4.90;94.50
23301;DHT22;11819;51.394;12.340;2022-12-05T01:06:22;4.80;94.40
23301;DHT22;11819;51.394;12.340;2022-12-05T01:08:48;4.90;94.50
23301;DHT22;11819;51.394;12.340;2022-12-05T01:11:16;4.80;94.40
23301;DHT22;11819;51.394;12.340;2022-12-05T01:13:43;4.80;94.50
23301;DHT22;11819;51.394;12.340;2022-12-05T01:16:35;4.90;94.50
23301;DHT22;11819;51.394;12.340;2022-12-05T01:19:05;4.90;94.50
23301;DHT22;11819;51.394;12.340;2022-12-05T01:21:31;4.90;94.50
23301;DHT22;11819;51.394;12.340;2022-12-05T01:23:57;4.90;94.40
23301;DHT22;11819;51.394;12.340;2022-12-05T01:26:24;4.90;94.40
23301;DHT22;11819;51.394;12.340;2022-12-05T01:28:50;4.90;94.50
23301;DHT22;11819;51.394;12.340;2022-12-05T01:31:27;4.90;94.60
23301;DHT22;11819;51.394;12.340;2022-12-05T01:33:55;4.90;94.50
23301;DHT22;11819;51.394;12.340;2022-12-05T01:36:22;4.90;94.50
23301;DHT22;11819;51.394;12.340;2022-12-05T01:38:48;4.90;94.50
23301;DHT22;11819;51.394;12.340;2022-12-05T01:41:18;4.90;94.50
23301;DHT22;11819;51.394;12.340;2022-12-05T01:43:59;5.00;94.90
23301;DHT22;11819;51.394;12.340;2022-12-05T01:46:26;5.00;94.50
23301;DHT22;11819;51.394;12.340;2022-12-05T01:49:16;5.00;94.50
23301;DHT22;11819;51.394;12.340;2022-12-05T01:51:44;5.00;94.50
23301;DHT22;11819;51.394;12.340;2022-12-05T01:54:11;5.00;94.40
23301;DHT22;11819;51.394;12.340;2022-12-05T01:56:39;5.00;94.40
23301;DHT22;11819;51.394;12.340;2022-12-05T01:59:07;5.00;94.40
23301;DHT22;11819;51.394;12.340;2022-12-05T02:01:34;4.90;94.40
23301;DHT22;11819;51.394;12.340;2022-12-05T02:04:01;4.90;94.40
23301;DHT22;11819;51.394;12.340;2022-12-05T02:06:27;4.90;94.50
23301;DHT22;11819;51.394;12.340;2022-12-05T02:08:54;4.90;94.50
23301;DHT22;11819;51.394;12.340;2022-12-05T02:11:21;4.90;94.50
23301;DHT22;11819;51.394;12.340;2022-12-05T02:14:08;4.80;94.50
23301;DHT22;11819;51.394;12.340;2022-12-05T02:16:54;4.80;94.50
23301;DHT22;11819;51.394;12.340;2022-12-05T02:30:20;4.80;94.70
23301;DHT22;11819;51.394;12.340;2022-12-05T02:38:35;4.90;94.70
23301;DHT22;11819;51.394;12.340;2022-12-05T02:43:30;4.90;94.60
23301;DHT22;11819;51.394;12.340;2022-12-05T02:46:00;4.90;94.60
23301;DHT22;11819;51.394;12.340;2022-12-05T02:48:28;4.90;94.60
23301;DHT22;11819;51.394;12.340;2022-12-05T02:50:58;4.90;94.60
23301;DHT22;11819;51.394;12.340;2022-12-05T02:53:26;4.90;94.70
23301;DHT22;11819;51.394;12.340;2022-12-05T02:55:53;4.90;94.70
23301;DHT22;11819;51.394;12.340;2022-12-05T02:58:26;4.90;95.00
23301;DHT22;11819;51.394;12.340;2022-12-05T03:00:58;4.90;94.70
23301;DHT22;11819;51.394;12.340;2022-12-05T03:03:24;4.90;94.90
23301;DHT22;11819;51.394;12.340;2022-12-05T03:06:04;4.80;95.10
23301;DHT22;11819;51.394;12.340;2022-12-05T03:08:38;4.80;94.80
23301;DHT22;11819;51.394;12.340;2022-12-05T03:11:05;4.90;94.50
23301;DHT22;11819;51.394;12.340;2022-12-05T03:13:43;4.80;94.50
23301;DHT22;11819;51.394;12.340;2022-12-05T03:16:15;4.80;94.50
23301;DHT22;11819;51.394;12.340;2022-12-05T03:18:57;4.80;94.50
23301;DHT22;11819;51.394;12.340;2022-12-05T03:24:03;4.80;94.50
23301;DHT22;11819;51.394;12.340;2022-12-05T03:29:47;4.90;94.50
23301;DHT22;11819;51.394;12.340;2022-12-05T03:38:36;4.90;94.50
23301;DHT22;11819;51.394;12.340;2022-12-05T03:41:34;4.90;94.50
23301;DHT22;11819;51.394;12.340;2022-12-05T03:44:22;4.90;94.50
23301;DHT22;11819;51.394;12.340;2022-12-05T03:47:23;4.90;94.50
23301;DHT22;11819;51.394;12.340;2022-12-05T03:49:54;4.90;94.50
23301;DHT22;11819;51.394;12.340;2022-12-05T03:52:30;5.00;94.50
23301;DHT22;11819;51.394;12.340;2022-12-05T03:55:01;4.90;94.50
23301;DHT22;11819;51.394;12.340;2022-12-05T03:58:04;4.90;94.40
23301;DHT22;11819;51.394;12.340;2022-12-05T04:00:34;4.90;94.50
23301;DHT22;11819;51.394;12.340;2022-12-05T04:05:44;4.90;94.50
23301;DHT22;11819;51.394;12.340;2022-12-05T04:08:18;4.90;94.50
23301;DHT22;11819;51.394;12.340;2022-12-05T04:10:48;4.90;94.50
23301;DHT22;11819;51.394;12.340;2022-12-05T04:16:03;4.90;94.60
23301;DHT22;11819;51.394;12.340;2022-12-05T04:19:14;5.00;94.60
23301;DHT22;11819;51.394;12.340;2022-12-05T04:21:44;4.90;94.60
23301;DHT22;11819;51.394;12.340;2022-12-05T04:24:21;4.90;94.50
23301;DHT22;11819;51.394;12.340;2022-12-05T04:27:33;4.90;94.50
23301;DHT22;11819;51.394;12.340;2022-12-05T04:30:13;5.00;94.60
23301;DHT22;11819;51.394;12.340;2022-12-05T04:33:14;4.90;94.50
23301;DHT22;11819;51.394;12.340;2022-12-05T04:35:45;4.90;94.50
23301;DHT22;11819;51.394;12.340;2022-12-05T04:38:19;5.00;94.50
23301;DHT22;11819;51.394;12.340;2022-12-05T04:43:22;5.00;94.50
23301;DHT22;11819;51.394;12.340;2022-12-05T04:45:50;4.90;94.50
23301;DHT22;11819;51.394;12.340;2022-12-05T04:48:17;5.00;94.50
23301;DHT22;11819;51.394;12.340;2022-12-05T04:50:45;5.00;94.50
23301;DHT22;11819;51.394;12.340;2022-12-05T04:53:13;5.00;94.40
23301;DHT22;11819;51.394;12.340;2022-12-05T04:55:43;5.00;94.40
23301;DHT22;11819;51.394;12.340;2022-12-05T04:58:16;5.00;94.40
23301;DHT22;11819;51.394;12.340;2022-12-05T05:00:50;5.00;94.40
23301;DHT22;11819;51.394;12.340;2022-12-05T05:03:58;5.00;94.40
23301;DHT22;11819;51.394;12.340;2022-12-05T05:06:24;5.00;94.40
23301;DHT22;11819;51.394;12.340;2022-12-05T05:08:56;5.00;94.50
23301;DHT22;11819;51.394;12.340;2022-12-05T05:11:27;5.00;94.50
23301;DHT22;11819;51.394;12.340;2022-12-05T05:13:53;5.00;94.50
23301;DHT22;11819;51.394;12.340;2022-12-05T05:16:24;5.00;95.20
23301;DHT22;11819;51.394;12.340;2022-12-05T05:18:51;5.00;96.30
23301;DHT22;11819;51.394;12.340;2022-12-05T05:23:53;5.00;95.40
23301;DHT22;11819;51.394;12.340;2022-12-05T05:26:19;5.00;95.90
23301;DHT22;11819;51.394;12.340;2022-12-05T05:28:46;5.00;95.80
23301;DHT22;11819;51.394;12.340;2022-12-05T05:31:12;5.00;96.10
23301;DHT22;11819;51.394;12.340;2022-12-05T05:33:38;5.00;95.60
23301;DHT22;11819;51.394;12.340;2022-12-05T05:36:05;5.00;96.10
23301;DHT22;11819;51.394;12.340;2022-12-05T05:38:37;5.10;96.40
23301;DHT22;11819;51.394;12.340;2022-12-05T05:41:03;5.10;96.20
23301;DHT22;11819;51.394;12.340;2022-12-05T05:43:29;5.10;96.00
23301;DHT22;11819;51.394;12.340;2022-12-05T05:45:55;5.10;96.40
23301;DHT22;11819;51.394;12.340;2022-12-05T05:48:21;5.10;96.00
23301;DHT22;11819;51.394;12.340;2022-12-05T05:50:46;5.10;96.50
23301;DHT22;11819;51.394;12.340;2022-12-05T05:53:12;5.10;96.30
23301;DHT22;11819;51.394;12.340;2022-12-05T05:55:39;5.10;96.30
23301;DHT22;11819;51.394;12.340;2022-12-05T05:58:05;5.10;96.80
23301;DHT22;11819;51.394;12.340;2022-12-05T06:00:31;5.10;96.80
23301;DHT22;11819;51.394;12.340;2022-12-05T06:02:57;5.10;96.60
23301;DHT22;11819;51.394;12.340;2022-12-05T06:05:23;5.10;96.70
23301;DHT22;11819;51.394;12.340;2022-12-05T06:07:48;5.20;96.80
23301;DHT22;11819;51.394;12.340;2022-12-05T06:10:14;5.10;96.60
23301;DHT22;11819;51.394;12.340;2022-12-05T06:12:40;5.10;97.40
23301;DHT22;11819;51.394;12.340;2022-12-05T06:15:06;5.20;97.80
23301;DHT22;11819;51.394;12.340;2022-12-05T06:17:32;5.10;99.10
23301;DHT22;11819;51.394;12.340;2022-12-05T06:19:57;5.10;98.00
23301;DHT22;11819;51.394;12.340;2022-12-05T06:22:23;5.10;97.70
23301;DHT22;11819;51.394;12.340;2022-12-05T06:24:49;5.10;97.90
23301;DHT22;11819;51.394;12.340;2022-12-05T06:27:14;5.20;98.00
23301;DHT22;11819;51.394;12.340;2022-12-05T06:29:40;5.20;99.10
23301;DHT22;11819;51.394;12.340;2022-12-05T06:32:06;5.20;98.20
23301;DHT22;11819;51.394;12.340;2022-12-05T06:34:32;5.20;98.50
23301;DHT22;11819;51.394;12.340;2022-12-05T06:36:58;5.20;98.60
23301;DHT22;11819;51.394;12.340;2022-12-05T06:39:24;5.20;98.10
23301;DHT22;11819;51.394;12.340;2022-12-05T06:41:50;5.20;98.10
23301;DHT22;11819;51.394;12.340;2022-12-05T06:44:15;5.20;98.80
23301;DHT22;11819;51.394;12.340;2022-12-05T06:46:41;5.20;98.30
23301;DHT22;11819;51.394;12.340;2022-12-05T06:49:09;5.10;98.20
23301;DHT22;11819;51.394;12.340;2022-12-05T06:51:35;5.10;98.70
23301;DHT22;11819;51.394;12.340;2022-12-05T06:54:01;5.10;99.10
23301;DHT22;11819;51.394;12.340;2022-12-05T06:56:26;5.20;99.90
23301;DHT22;11819;51.394;12.340;2022-12-05T06:58:53;5.20;99.90
23301;DHT22;11819;51.394;12.340;2022-12-05T07:01:21;5.20;99.90
23301;DHT22;11819;51.394;12.340;2022-12-05T07:04:18;5.10;99.80
23301;DHT22;11819;51.394;12.340;2022-12-05T07:06:46;5.20;99.70
23301;DHT22;11819;51.394;12.340;2022-12-05T07:09:13;5.20;99.60
23301;DHT22;11819;51.394;12.340;2022-12-05T07:11:39;5.20;99.90
23301;DHT22;11819;51.394;12.340;2022-12-05T07:14:05;5.20;99.90
23301;DHT22;11819;51.394;12.340;2022-12-05T07:16:31;5.20;99.90
23301;DHT22;11819;51.394;12.340;2022-12-05T07:18:57;5.20;99.70
23301;DHT22;11819;51.394;12.340;2022-12-05T07:21:23;5.20;99.50
23301;DHT22;11819;51.394;12.340;2022-12-05T07:23:48;5.20;94.30
23301;DHT22;11819;51.394;12.340;2022-12-05T07:26:17;5.20;94.30
23301;DHT22;11819;51.394;12.340;2022-12-05T07:28:44;5.20;94.30
23301;DHT22;11819;51.394;12.340;2022-12-05T07:31:13;5.20;94.30
23301;DHT22;11819;51.394;12.340;2022-12-05T07:33:39;5.20;94.30
23301;DHT22;11819;51.394;12.340;2022-12-05T07:36:07;5.20;94.30
23301;DHT22;11819;51.394;12.340;2022-12-05T07:38:33;5.20;94.30
23301;DHT22;11819;51.394;12.340;2022-12-05T07:41:03;5.20;94.30
23301;DHT22;11819;51.394;12.340;2022-12-05T07:43:29;5.20;94.30
23301;DHT22;11819;51.394;12.340;2022-12-05T07:45:55;5.20;94.30
23301;DHT22;11819;51.394;12.340;2022-12-05T07:48:20;5.30;94.40
23301;DHT22;11819;51.394;12.340;2022-12-05T07:50:46;5.30;94.40
23301;DHT22;11819;51.394;12.340;2022-12-05T07:53:12;5.30;94.40
23301;DHT22;11819;51.394;12.340;2022-12-05T07:55:37;5.30;94.30
23301;DHT22;11819;51.394;12.340;2022-12-05T07:58:03;5.40;94.30
23301;DHT22;11819;51.394;12.340;2022-12-05T08:00:29;5.40;94.40
23301;DHT22;11819;51.394;12.340;2022-12-05T08:02:55;5.40;94.30
23301;DHT22;11819;51.394;12.340;2022-12-05T08:05:20;5.40;94.30
23301;DHT22;11819;51.394;12.340;2022-12-05T08:07:46;5.40;94.30
23301;DHT22;11819;51.394;12.340;2022-12-05T08:10:12;5.40;94.30
23301;DHT22;11819;51.394;12.340;2022-12-05T08:12:37;5.40;94.40
23301;DHT22;11819;51.394;12.340;2022-12-05T08:15:04;5.30;94.30
23301;DHT22;11819;51.394;12.340;2022-12-05T08:17:30;5.30;94.40
23301;DHT22;11819;51.394;12.340;2022-12-05T08:19:56;5.30;94.40
23301;DHT22;11819;51.394;12.340;2022-12-05T08:22:22;5.20;94.40
23301;DHT22;11819;51.394;12.340;2022-12-05T08:24:50;5.20;94.50
23301;DHT22;11819;51.394;12.340;2022-12-05T08:27:16;5.10;94.60
23301;DHT22;11819;51.394;12.340;2022-12-05T08:29:42;5.10;94.80
23301;DHT22;11819;51.394;12.340;2022-12-05T08:32:07;5.10;94.80
23301;DHT22;11819;51.394;12.340;2022-12-05T08:34:33;5.10;94.80
23301;DHT22;11819;51.394;12.340;2022-12-05T08:36:59;5.10;94.80
23301;DHT22;11819;51.394;12.340;2022-12-05T08:39:24;5.00;94.70
23301;DHT22;11819;51.394;12.340;2022-12-05T08:41:51;5.00;94.90
23301;DHT22;11819;51.394;12.340;2022-12-05T08:44:17;4.90;94.90
23301;DHT22;11819;51.394;12.340;2022-12-05T08:46:45;4.90;95.00
23301;DHT22;11819;51.394;12.340;2022-12-05T08:49:11;4.90;95.10
23301;DHT22;11819;51.394;12.340;2022-12-05T08:51:37;4.90;95.20
23301;DHT22;11819;51.394;12.340;2022-12-05T08:54:04;4.90;95.20
23301;DHT22;11819;51.394;12.340;2022-12-05T08:56:30;5.00;95.20
23301;DHT22;11819;51.394;12.340;2022-12-05T08:58:57;4.90;95.20
23301;DHT22;11819;51.394;12.340;2022-12-05T09:01:23;5.00;95.20
23301;DHT22;11819;51.394;12.340;2022-12-05T09:03:54;5.00;95.20
23301;DHT22;11819;51.394;12.340;2022-12-05T09:06:22;5.00;95.20
23301;DHT22;11819;51.394;12.340;2022-12-05T09:08:52;5.00;95.10
23301;DHT22;11819;51.394;12.340;2022-12-05T09:11:20;4.90;95.00
23301;DHT22;11819;51.394;12.340;2022-12-05T09:13:49;4.80;94.90
23301;DHT22;11819;51.394;12.340;2022-12-05T09:16:18;4.80;95.00
23301;DHT22;11819;51.394;12.340;2022-12-05T09:18:44;4.70;95.10
23301;DHT22;11819;51.394;12.340;2022-12-05T09:21:15;4.70;95.20
23301;DHT22;11819;51.394;12.340;2022-12-05T09:23:42;4.70;95.10
23301;DHT22;11819;51.394;12.340;2022-12-05T09:26:11;4.60;95.00
23301;DHT22;11819;51.394;12.340;2022-12-05T09:28:37;4.50;95.10
23301;DHT22;11819;51.394;12.340;2022-12-05T09:31:06;4.50;95.20
23301;DHT22;11819;51.394;12.340;2022-12-05T09:33:34;4.50;95.40
23301;DHT22;11819;51.394;12.340;2022-12-05T09:36:08;4.50;95.50
23301;DHT22;11819;51.394;12.340;2022-12-05T09:38:35;4.50;95.50
23301;DHT22;11819;51.394;12.340;2022-12-05T09:41:05;4.60;95.60
23301;DHT22;11819;51.394;12.340;2022-12-05T09:43:58;4.60;95.50
23301;DHT22;11819;51.394;12.340;2022-12-05T09:49:08;4.50;95.50
23301;DHT22;11819;51.394;12.340;2022-12-05T09:51:41;4.60;95.60
23301;DHT22;11819;51.394;12.340;2022-12-05T09:54:10;4.60;95.60
23301;DHT22;11819;51.394;12.340;2022-12-05T09:56:37;4.60;95.50
23301;DHT22;11819;51.394;12.340;2022-12-05T09:59:03;4.60;95.50
23301;DHT22;11819;51.394;12.340;2022-12-05T10:01:40;4.60;95.30
23301;DHT22;11819;51.394;12.340;2022-12-05T10:04:17;4.60;95.20
23301;DHT22;11819;51.394;12.340;2022-12-05T10:10:25;4.50;95.20
23301;DHT22;11819;51.394;12.340;2022-12-05T10:15:54;4.50;95.30
23301;DHT22;11819;51.394;12.340;2022-12-05T10:18:34;4.50;95.70
23301;DHT22;11819;51.394;12.340;2022-12-05T10:29:02;4.40;95.30
23301;DHT22;11819;51.394;12.340;2022-12-05T10:31:35;4.40;95.80
23301;DHT22;11819;51.394;12.340;2022-12-05T10:34:16;4.40;95.80
23301;DHT22;11819;51.394;12.340;2022-12-05T10:36:59;4.30;95.80
23301;DHT22;11819;51.394;12.340;2022-12-05T10:39:26;4.30;95.80
23301;DHT22;11819;51.394;12.340;2022-12-05T10:41:52;4.40;96.00
23301;DHT22;11819;51.394;12.340;2022-12-05T10:44:18;4.40;95.90
23301;DHT22;11819;51.394;12.340;2022-12-05T10:46:44;4.40;95.90
23301;DHT22;11819;51.394;12.340;2022-12-05T10:49:10;4.40;95.80
23301;DHT22;11819;51.394;12.340;2022-12-05T10:51:37;4.50;96.00
23301;DHT22;11819;51.394;12.340;2022-12-05T10:54:23;4.50;96.10
23301;DHT22;11819;51.394;12.340;2022-12-05T10:56:51;4.60;95.60
23301;DHT22;11819;51.394;12.340;2022-12-05T10:59:22;4.50;95.40
23301;DHT22;11819;51.394;12.340;2022-12-05T11:01:56;4.40;95.60
23301;DHT22;11819;51.394;12.340;2022-12-05T11:04:41;4.40;95.70
23301;DHT22;11819;51.394;12.340;2022-12-05T11:07:31;4.30;95.70
23301;DHT22;11819;51.394;12.340;2022-12-05T11:10:02;4.30;95.80
23301;DHT22;11819;51.394;12.340;2022-12-05T11:15:00;4.20;96.10
23301;DHT22;11819;51.394;12.340;2022-12-05T11:17:35;4.30;96.20
23301;DHT22;11819;51.394;12.340;2022-12-05T11:22:45;4.40;96.40
23301;DHT22;11819;51.394;12.340;2022-12-05T11:25:27;4.40;96.60
23301;DHT22;11819;51.394;12.340;2022-12-05T11:27:57;4.40;96.20
23301;DHT22;11819;51.394;12.340;2022-12-05T11:30:26;4.40;96.20
23301;DHT22;11819;51.394;12.340;2022-12-05T11:33:22;4.40;96.30
23301;DHT22;11819;51.394;12.340;2022-12-05T11:35:50;4.40;96.30
23301;DHT22;11819;51.394;12.340;2022-12-05T11:38:18;4.40;96.20
23301;DHT22;11819;51.394;12.340;2022-12-05T11:43:23;4.40;96.10
23301;DHT22;11819;51.394;12.340;2022-12-05T11:54:00;4.40;96.10
23301;DHT22;11819;51.394;12.340;2022-12-05T11:56:41;4.50;96.30
23301;DHT22;11819;51.394;12.340;2022-12-05T12:03:21;4.50;96.30
23301;DHT22;11819;51.394;12.340;2022-12-05T12:14:31;4.50;96.00
23301;DHT22;11819;51.394;12.340;2022-12-05T12:20:25;4.40;96.50
23301;DHT22;11819;51.394;12.340;2022-12-05T12:23:31;4.40;95.90
23301;DHT22;11819;51.394;12.340;2022-12-05T12:26:12;4.30;96.30
23301;DHT22;11819;51.394;12.340;2022-12-05T12:29:05;4.20;96.30
23301;DHT22;11819;51.394;12.340;2022-12-05T12:34:27;4.20;96.40
23301;DHT22;11819;51.394;12.340;2022-12-05T12:51:11;4.20;96.80
23301;DHT22;11819;51.394;12.340;2022-12-05T12:53:54;4.20;96.70
23301;DHT22;11819;51.394;12.340;2022-12-05T12:56:35;4.20;96.70
23301;DHT22;11819;51.394;12.340;2022-12-05T12:59:42;4.20;96.70
23301;DHT22;11819;51.394;12.340;2022-12-05T13:02:20;4.20;96.60
23301;DHT22;11819;51.394;12.340;2022-12-05T13:04:48;4.20;96.70
23301;DHT22;11819;51.394;12.340;2022-12-05T13:08:02;4.20;96.70
23301;DHT22;11819;51.394;12.340;2022-12-05T13:12:49;4.20;96.50
23301;DHT22;11819;51.394;12.340;2022-12-05T13:15:28;4.20;96.50
23301;DHT22;11819;51.394;12.340;2022-12-05T13:17:56;4.20;96.40
23301;DHT22;11819;51.394;12.340;2022-12-05T13:20:32;4.20;96.40
23301;DHT22;11819;51.394;12.340;2022-12-05T13:22:59;4.10;96.50
23301;DHT22;11819;51.394;12.340;2022-12-05T13:25:29;4.20;96.60
23301;DHT22;11819;51.394;12.340;2022-12-05T13:27:59;4.20;96.60
23301;DHT22;11819;51.394;12.340;2022-12-05T13:30:25;4.20;96.60
23301;DHT22;11819;51.394;12.340;2022-12-05T13:33:07;4.10;96.60
23301;DHT22;11819;51.394;12.340;2022-12-05T13:35:35;4.10;96.50
23301;DHT22;11819;51.394;12.340;2022-12-05T13:38:39;4.10;96.70
23301;DHT22;11819;51.394;12.340;2022-12-05T13:41:41;4.10;96.90
23301;DHT22;11819;51.394;12.340;2022-12-05T13:44:51;4.10;96.90
23301;DHT22;11819;51.394;12.340;2022-12-05T13:50:29;4.10;96.70
23301;DHT22;11819;51.394;12.340;2022-12-05T13:53:16;4.20;96.80
23301;DHT22;11819;51.394;12.340;2022-12-05T13:56:06;4.20;96.80
23301;DHT22;11819;51.394;12.340;2022-12-05T13:58:57;4.30;96.90
23301;DHT22;11819;51.394;12.340;2022-12-05T14:17:42;4.30;96.90
23301;DHT22;11819;51.394;12.340;2022-12-05T14:20:16;4.30;96.80
23301;DHT22;11819;51.394;12.340;2022-12-05T14:22:46;4.30;96.70
23301;DHT22;11819;51.394;12.340;2022-12-05T14:25:41;4.30;96.60
23301;DHT22;11819;51.394;12.340;2022-12-05T14:33:36;4.30;96.60
23301;DHT22;11819;51.394;12.340;2022-12-05T14:36:05;4.30;96.70
23301;DHT22;11819;51.394;12.340;2022-12-05T14:38:33;4.40;96.70
23301;DHT22;11819;51.394;12.340;2022-12-05T14:41:31;4.40;96.70
23301;DHT22;11819;51.394;12.340;2022-12-05T14:43:57;4.40;96.60
23301;DHT22;11819;51.394;12.340;2022-12-05T14:46:29;4.40;96.60
23301;DHT22;11819;51.394;12.340;2022-12-05T14:48:56;4.40;97.00
23301;DHT22;11819;51.394;12.340;2022-12-05T14:54:04;4.40;96.80
23301;DHT22;11819;51.394;12.340;2022-12-05T14:56:33;4.50;96.80
23301;DHT22;11819;51.394;12.340;2022-12-05T14:59:09;4.50;96.70
23301;DHT22;11819;51.394;12.340;2022-12-05T15:01:45;4.50;96.70
23301;DHT22;11819;51.394;12.340;2022-12-05T15:07:09;4.50;96.60
23301;DHT22;11819;51.394;12.340;2022-12-05T15:12:18;4.50;96.60
23301;DHT22;11819;51.394;12.340;2022-12-05T15:17:33;4.50;96.60
23301;DHT22;11819;51.394;12.340;2022-12-05T15:20:15;4.40;96.60
23301;DHT22;11819;51.394;12.340;2022-12-05T15:22:42;4.50;96.80
23301;DHT22;11819;51.394;12.340;2022-12-05T15:27:40;4.50;96.90
23301;DHT22;11819;51.394;12.340;2022-12-05T15:30:14;4.50;96.90
23301;DHT22;11819;51.394;12.340;2022-12-05T15:32:40;4.60;97.00
23301;DHT22;11819;51.394;12.340;2022-12-05T15:35:10;4.60;96.90
23301;DHT22;11819;51.394;12.340;2022-12-05T15:37:51;4.70;96.80
23301;DHT22;11819;51.394;12.340;2022-12-05T15:40:20;4.60;96.70
23301;DHT22;11819;51.394;12.340;2022-12-05T15:42:56;4.60;96.70
23301;DHT22;11819;51.394;12.340;2022-12-05T15:45:25;4.60;96.70
23301;DHT22;11819;51.394;12.340;2022-12-05T15:47:54;4.60;96.70
23301;DHT22;11819;51.394;12.340;2022-12-05T15:55:50;4.70;96.70
23301;DHT22;11819;51.394;12.340;2022-12-05T15:58:24;4.80;96.70
23301;DHT22;11819;51.394;12.340;2022-12-05T16:01:03;4.70;96.50
23301;DHT22;11819;51.394;12.340;2022-12-05T16:03:40;4.70;96.40
23301;DHT22;11819;51.394;12.340;2022-12-05T16:06:13;4.70;96.40
23301;DHT22;11819;51.394;12.340;2022-12-05T16:08:45;4.70;96.40
23301;DHT22;11819;51.394;12.340;2022-12-05T16:11:12;4.70;96.30
23301;DHT22;11819;51.394;12.340;2022-12-05T16:13:46;4.80;96.30
23301;DHT22;11819;51.394;12.340;2022-12-05T16:16:19;4.70;96.20
23301;DHT22;11819;51.394;12.340;2022-12-05T16:18:55;4.70;96.10
23301;DHT22;11819;51.394;12.340;2022-12-05T16:21:36;4.70;96.10
23301;DHT22;11819;51.394;12.340;2022-12-05T16:24:10;4.70;95.90
23301;DHT22;11819;51.394;12.340;2022-12-05T16:26:38;4.60;95.80
23301;DHT22;11819;51.394;12.340;2022-12-05T16:29:05;4.60;95.90
23301;DHT22;11819;51.394;12.340;2022-12-05T16:31:33;4.60;95.80
23301;DHT22;11819;51.394;12.340;2022-12-05T16:34:13;4.50;95.80
23301;DHT22;11819;51.394;12.340;2022-12-05T16:36:48;4.50;95.80
23301;DHT22;11819;51.394;12.340;2022-12-05T16:39:14;4.40;95.90
23301;DHT22;11819;51.394;12.340;2022-12-05T16:41:40;4.40;95.90
23301;DHT22;11819;51.394;12.340;2022-12-05T16:44:47;4.30;96.00
23301;DHT22;11819;51.394;12.340;2022-12-05T16:47:23;4.30;96.00
23301;DHT22;11819;51.394;12.340;2022-12-05T16:49:50;4.30;96.20
23301;DHT22;11819;51.394;12.340;2022-12-05T16:52:16;4.30;96.20
23301;DHT22;11819;51.394;12.340;2022-12-05T16:54:44;4.30;96.00
23301;DHT22;11819;51.394;12.340;2022-12-05T16:57:12;4.30;95.80
23301;DHT22;11819;51.394;12.340;2022-12-05T16:59:39;4.20;95.70
23301;DHT22;11819;51.394;12.340;2022-12-05T17:02:18;4.20;95.60
23301;DHT22;11819;51.394;12.340;2022-12-05T17:04:43;4.20;95.60
23301;DHT22;11819;51.394;12.340;2022-12-05T17:07:11;4.20;95.60
23301;DHT22;11819;51.394;12.340;2022-12-05T17:09:36;4.20;95.60
23301;DHT22;11819;51.394;12.340;2022-12-05T17:12:22;4.20;95.40
23301;DHT22;11819;51.394;12.340;2022-12-05T17:14:49;4.20;95.30
23301;DHT22;11819;51.394;12.340;2022-12-05T17:17:14;4.10;95.20
23301;DHT22;11819;51.394;12.340;2022-12-05T17:19:42;4.10;95.50
23301;DHT22;11819;51.394;12.340;2022-12-05T17:22:07;4.10;96.00
23301;DHT22;11819;51.394;12.340;2022-12-05T17:24:35;4.10;96.10
23301;DHT22;11819;51.394;12.340;2022-12-05T17:27:01;4.10;96.00
23301;DHT22;11819;51.394;12.340;2022-12-05T17:29:27;4.10;95.90
23301;DHT22;11819;51.394;12.340;2022-12-05T17:31:52;4.10;96.10
23301;DHT22;11819;51.394;12.340;2022-12-05T17:34:18;4.10;96.20
23301;DHT22;11819;51.394;12.340;2022-12-05T17:36:44;4.10;96.20
23301;DHT22;11819;51.394;12.340;2022-12-05T17:39:10;4.20;96.30
23301;DHT22;11819;51.394;12.340;2022-12-05T17:41:36;4.20;96.10
23301;DHT22;11819;51.394;12.340;2022-12-05T17:44:03;4.20;96.00
23301;DHT22;11819;51.394;12.340;2022-12-05T17:46:29;4.30;96.10
23301;DHT22;11819;51.394;12.340;2022-12-05T17:48:54;4.30;96.10
23301;DHT22;11819;51.394;12.340;2022-12-05T17:51:21;4.30;96.20
23301;DHT22;11819;51.394;12.340;2022-12-05T17:53:47;4.30;96.20
23301;DHT22;11819;51.394;12.340;2022-12-05T17:56:13;4.30;96.40
23301;DHT22;11819;51.394;12.340;2022-12-05T17:58:39;4.40;96.60
23301;DHT22;11819;51.394;12.340;2022-12-05T18:01:05;4.40;96.70
23301;DHT22;11819;51.394;12.340;2022-12-05T18:03:31;4.40;96.80
23301;DHT22;11819;51.394;12.340;2022-12-05T18:05:57;4.40;96.90
23301;DHT22;11819;51.394;12.340;2022-12-05T18:08:22;4.40;96.90
23301;DHT22;11819;51.394;12.340;2022-12-05T18:10:49;4.50;97.20
23301;DHT22;11819;51.394;12.340;2022-12-05T18:13:15;4.50;97.40
23301;DHT22;11819;51.394;12.340;2022-12-05T18:15:41;4.50;97.70
23301;DHT22;11819;51.394;12.340;2022-12-05T18:18:12;4.50;98.20
23301;DHT22;11819;51.394;12.340;2022-12-05T18:20:38;4.40;99.50
23301;DHT22;11819;51.394;12.340;2022-12-05T18:23:04;4.50;99.60
23301;DHT22;11819;51.394;12.340;2022-12-05T18:25:29;4.50;99.70
23301;DHT22;11819;51.394;12.340;2022-12-05T18:27:57;4.40;99.90
23301;DHT22;11819;51.394;12.340;2022-12-05T18:30:23;4.40;99.90